sensor_id;sensor_type;location;lat;lon;timestamp;temperature;humidity
66190;DHT22;52992;52.084;5.412;2023-09-12T00:01:30;25.60;61.10
66190;DHT22;52992;52.084;5.412;2023-09-12T00:04:00;25.60;61.10
66190;DHT22;52992;52.084;5.412;2023-09-12T00:06:27;25.60;61.10
66190;DHT22;52992;52.084;5.412;2023-09-12T00:08:54;25.60;61.10
66190;DHT22;52992;52.084;5.412;2023-09-12T00:11:21;25.50;61.10
66190;DHT22;52992;52.084;5.412;2023-09-12T00:13:53;25.50;61.00
66190;DHT22;52992;52.084;5.412;2023-09-12T00:16:20;25.50;61.10
66190;DHT22;52992;52.084;5.412;2023-09-12T00:18:47;25.50;61.10
66190;DHT22;52992;52.084;5.412;2023-09-12T00:21:14;25.50;61.10
66190;DHT22;52992;52.084;5.412;2023-09-12T00:23:41;25.40;61.10
66190;DHT22;52992;52.084;5.412;2023-09-12T00:26:08;25.40;61.20
66190;DHT22;52992;52.084;5.412;2023-09-12T00:28:36;25.40;61.20
66190;DHT22;52992;52.084;5.412;2023-09-12T00:31:04;25.40;61.30
66190;DHT22;52992;52.084;5.412;2023-09-12T00:33:31;25.40;61.40
66190;DHT22;52992;52.084;5.412;2023-09-12T00:35:58;25.40;61.40
66190;DHT22;52992;52.084;5.412;2023-09-12T00:38:25;25.40;61.30
66190;DHT22;52992;52.084;5.412;2023-09-12T00:40:52;25.40;61.30
66190;DHT22;52992;52.084;5.412;2023-09-12T00:43:19;25.40;61.30
66190;DHT22;52992;52.084;5.412;2023-09-12T00:45:46;25.30;61.30
66190;DHT22;52992;52.084;5.412;2023-09-12T00:48:15;25.30;61.40
66190;DHT22;52992;52.084;5.412;2023-09-12T00:50:43;25.30;61.40
66190;DHT22;52992;52.084;5.412;2023-09-12T00:53:12;25.30;61.50
66190;DHT22;52992;52.084;5.412;2023-09-12T00:55:44;25.30;61.50
66190;DHT22;52992;52.084;5.412;2023-09-12T00:58:13;25.30;61.60
66190;DHT22;52992;52.084;5.412;2023-09-12T01:00:41;25.30;61.70
66190;DHT22;52992;52.084;5.412;2023-09-12T01:03:08;25.30;61.80
66190;DHT22;52992;52.084;5.412;2023-09-12T01:05:35;25.30;61.90
66190;DHT22;52992;52.084;5.412;2023-09-12T01:08:03;25.20;62.00
66190;DHT22;52992;52.084;5.412;2023-09-12T01:10:30;25.20;62.00
66190;DHT22;52992;52.084;5.412;2023-09-12T01:12:57;25.20;62.00
66190;DHT22;52992;52.084;5.412;2023-09-12T01:15:24;25.20;61.90
66190;DHT22;52992;52.084;5.412;2023-09-12T01:17:51;25.20;61.90
66190;DHT22;52992;52.084;5.412;2023-09-12T01:20:24;25.20;61.90
66190;DHT22;52992;52.084;5.412;2023-09-12T01:23:08;25.20;62.00
66190;DHT22;52992;52.084;5.412;2023-09-12T01:28:51;25.10;61.90
66190;DHT22;52992;52.084;5.412;2023-09-12T01:31:20;25.10;62.00
66190;DHT22;52992;52.084;5.412;2023-09-12T01:33:48;25.10;62.20
66190;DHT22;52992;52.084;5.412;2023-09-12T01:36:15;25.10;62.30
66190;DHT22;52992;52.084;5.412;2023-09-12T01:38:42;25.10;62.20
66190;DHT22;52992;52.084;5.412;2023-09-12T01:41:10;25.10;62.10
66190;DHT22;52992;52.084;5.412;2023-09-12T01:43:38;25.00;62.00
66190;DHT22;52992;52.084;5.412;2023-09-12T01:46:06;25.00;62.00
66190;DHT22;52992;52.084;5.412;2023-09-12T01:48:35;25.00;61.90
66190;DHT22;52992;52.084;5.412;2023-09-12T01:51:04;25.00;61.90
66190;DHT22;52992;52.084;5.412;2023-09-12T01:53:33;25.00;61.80
66190;DHT22;52992;52.084;5.412;2023-09-12T01:56:00;24.90;61.80
66190;DHT22;52992;52.084;5.412;2023-09-12T01:58:28;25.00;61.80
66190;DHT22;52992;52.084;5.412;2023-09-12T02:00:55;24.90;61.90
66190;DHT22;52992;52.084;5.412;2023-09-12T02:03:22;24.90;61.90
66190;DHT22;52992;52.084;5.412;2023-09-12T02:05:49;24.90;62.00
66190;DHT22;52992;52.084;5.412;2023-09-12T02:08:16;24.90;62.10
66190;DHT22;52992;52.084;5.412;2023-09-12T02:10:43;24.80;61.90
66190;DHT22;52992;52.084;5.412;2023-09-12T02:13:10;24.90;61.80
66190;DHT22;52992;52.084;5.412;2023-09-12T02:15:37;24.80;62.40
66190;DHT22;52992;52.084;5.412;2023-09-12T02:18:04;24.80;61.60
66190;DHT22;52992;52.084;5.412;2023-09-12T02:20:32;24.80;61.70
66190;DHT22;52992;52.084;5.412;2023-09-12T02:22:59;24.70;61.60
66190;DHT22;52992;52.084;5.412;2023-09-12T02:25:26;24.70;61.60
66190;DHT22;52992;52.084;5.412;2023-09-12T02:27:53;24.70;61.40
66190;DHT22;52992;52.084;5.412;2023-09-12T02:30:19;24.70;61.50
66190;DHT22;52992;52.084;5.412;2023-09-12T02:32:47;24.60;61.30
66190;DHT22;52992;52.084;5.412;2023-09-12T02:35:14;24.60;62.10
66190;DHT22;52992;52.084;5.412;2023-09-12T02:37:41;24.60;61.40
66190;DHT22;52992;52.084;5.412;2023-09-12T02:40:08;24.60;61.30
66190;DHT22;52992;52.084;5.412;2023-09-12T02:42:38;24.60;61.10
66190;DHT22;52992;52.084;5.412;2023-09-12T02:45:06;24.50;61.10
66190;DHT22;52992;52.084;5.412;2023-09-12T02:47:33;24.50;61.10
66190;DHT22;52992;52.084;5.412;2023-09-12T02:50:00;24.40;61.00
66190;DHT22;52992;52.084;5.412;2023-09-12T02:52:27;24.40;61.00
66190;DHT22;52992;52.084;5.412;2023-09-12T02:54:54;24.40;61.00
66190;DHT22;52992;52.084;5.412;2023-09-12T02:57:21;24.40;61.00
66190;DHT22;52992;52.084;5.412;2023-09-12T02:59:48;24.30;61.00
66190;DHT22;52992;52.084;5.412;2023-09-12T03:02:15;24.30;61.20
66190;DHT22;52992;52.084;5.412;2023-09-12T03:04:42;24.20;61.10
66190;DHT22;52992;52.084;5.412;2023-09-12T03:07:09;24.20;61.30
66190;DHT22;52992;52.084;5.412;2023-09-12T03:09:36;24.20;61.50
66190;DHT22;52992;52.084;5.412;2023-09-12T03:12:05;24.20;61.60
66190;DHT22;52992;52.084;5.412;2023-09-12T03:14:33;24.20;61.60
66190;DHT22;52992;52.084;5.412;2023-09-12T03:17:00;24.20;61.60
66190;DHT22;52992;52.084;5.412;2023-09-12T03:19:29;24.20;61.70
66190;DHT22;52992;52.084;5.412;2023-09-12T03:21:57;24.10;61.80
66190;DHT22;52992;52.084;5.412;2023-09-12T03:24:24;24.20;61.70
66190;DHT22;52992;52.084;5.412;2023-09-12T03:26:52;24.10;61.80
66190;DHT22;52992;52.084;5.412;2023-09-12T03:29:19;24.10;61.70
66190;DHT22;52992;52.084;5.412;2023-09-12T03:31:46;24.10;61.70
66190;DHT22;52992;52.084;5.412;2023-09-12T03:34:13;24.10;62.50
66190;DHT22;52992;52.084;5.412;2023-09-12T03:36:40;24.10;61.60
66190;DHT22;52992;52.084;5.412;2023-09-12T03:39:07;24.10;61.50
66190;DHT22;52992;52.084;5.412;2023-09-12T03:41:36;24.00;61.40
66190;DHT22;52992;52.084;5.412;2023-09-12T03:44:03;24.10;61.70
66190;DHT22;52992;52.084;5.412;2023-09-12T03:46:30;24.00;61.60
66190;DHT22;52992;52.084;5.412;2023-09-12T03:48:58;24.00;61.70
66190;DHT22;52992;52.084;5.412;2023-09-12T03:51:25;24.00;61.70
66190;DHT22;52992;52.084;5.412;2023-09-12T03:53:52;24.00;61.80
66190;DHT22;52992;52.084;5.412;2023-09-12T03:56:20;24.00;61.90
66190;DHT22;52992;52.084;5.412;2023-09-12T03:58:47;24.10;61.90
66190;DHT22;52992;52.084;5.412;2023-09-12T04:01:14;24.00;61.60
66190;DHT22;52992;52.084;5.412;2023-09-12T04:03:41;24.00;61.50
66190;DHT22;52992;52.084;5.412;2023-09-12T04:06:09;24.00;61.40
66190;DHT22;52992;52.084;5.412;2023-09-12T04:08:36;24.00;61.40
66190;DHT22;52992;52.084;5.412;2023-09-12T04:11:04;24.00;61.50
66190;DHT22;52992;52.084;5.412;2023-09-12T04:13:31;24.00;61.60
66190;DHT22;52992;52.084;5.412;2023-09-12T04:15:58;24.00;61.70
66190;DHT22;52992;52.084;5.412;2023-09-12T04:18:25;24.00;61.90
66190;DHT22;52992;52.084;5.412;2023-09-12T04:20:53;24.00;62.00
66190;DHT22;52992;52.084;5.412;2023-09-12T04:23:24;24.00;62.10
66190;DHT22;52992;52.084;5.412;2023-09-12T04:25:51;24.00;62.10
66190;DHT22;52992;52.084;5.412;2023-09-12T04:28:18;24.00;62.00
66190;DHT22;52992;52.084;5.412;2023-09-12T04:30:46;24.00;61.80
66190;DHT22;52992;52.084;5.412;2023-09-12T04:33:14;24.00;61.80
66190;DHT22;52992;52.084;5.412;2023-09-12T04:35:41;24.00;61.80
66190;DHT22;52992;52.084;5.412;2023-09-12T04:38:09;24.00;61.90
66190;DHT22;52992;52.084;5.412;2023-09-12T04:40:36;24.00;61.90
66190;DHT22;52992;52.084;5.412;2023-09-12T04:43:03;24.00;61.90
66190;DHT22;52992;52.084;5.412;2023-09-12T04:45:33;24.00;61.90
66190;DHT22;52992;52.084;5.412;2023-09-12T04:48:00;24.00;61.80
66190;DHT22;52992;52.084;5.412;2023-09-12T04:50:27;23.90;61.90
66190;DHT22;52992;52.084;5.412;2023-09-12T04:52:55;23.90;61.90
66190;DHT22;52992;52.084;5.412;2023-09-12T04:55:22;23.90;61.90
66190;DHT22;52992;52.084;5.412;2023-09-12T04:57:49;23.90;61.90
66190;DHT22;52992;52.084;5.412;2023-09-12T05:00:16;23.80;61.70
66190;DHT22;52992;52.084;5.412;2023-09-12T05:02:43;23.80;61.70
66190;DHT22;52992;52.084;5.412;2023-09-12T05:05:11;23.80;61.60
66190;DHT22;52992;52.084;5.412;2023-09-12T05:07:38;23.80;61.60
66190;DHT22;52992;52.084;5.412;2023-09-12T05:10:05;23.80;62.50
66190;DHT22;52992;52.084;5.412;2023-09-12T05:12:32;23.80;61.80
66190;DHT22;52992;52.084;5.412;2023-09-12T05:14:59;23.70;61.80
66190;DHT22;52992;52.084;5.412;2023-09-12T05:17:27;23.70;61.80
66190;DHT22;52992;52.084;5.412;2023-09-12T05:19:55;23.70;62.50
66190;DHT22;52992;52.084;5.412;2023-09-12T05:22:22;23.70;61.90
66190;DHT22;52992;52.084;5.412;2023-09-12T05:24:49;23.70;61.90
66190;DHT22;52992;52.084;5.412;2023-09-12T05:27:16;23.70;61.90
66190;DHT22;52992;52.084;5.412;2023-09-12T05:29:43;23.70;62.00
66190;DHT22;52992;52.084;5.412;2023-09-12T05:32:10;23.70;61.90
66190;DHT22;52992;52.084;5.412;2023-09-12T05:34:37;23.70;61.80
66190;DHT22;52992;52.084;5.412;2023-09-12T05:37:04;23.70;61.80
66190;DHT22;52992;52.084;5.412;2023-09-12T05:39:31;23.70;61.80
66190;DHT22;52992;52.084;5.412;2023-09-12T05:41:58;23.70;61.80
66190;DHT22;52992;52.084;5.412;2023-09-12T05:44:25;23.70;61.90
66190;DHT22;52992;52.084;5.412;2023-09-12T05:46:52;23.70;61.90
66190;DHT22;52992;52.084;5.412;2023-09-12T05:49:19;23.70;62.00
66190;DHT22;52992;52.084;5.412;2023-09-12T05:51:45;23.70;62.10
66190;DHT22;52992;52.084;5.412;2023-09-12T05:54:13;23.70;62.20
66190;DHT22;52992;52.084;5.412;2023-09-12T05:56:41;23.70;62.30
66190;DHT22;52992;52.084;5.412;2023-09-12T05:59:08;23.70;62.30
66190;DHT22;52992;52.084;5.412;2023-09-12T06:01:35;23.70;62.30
66190;DHT22;52992;52.084;5.412;2023-09-12T06:04:02;23.70;62.40
66190;DHT22;52992;52.084;5.412;2023-09-12T06:06:29;23.70;62.40
66190;DHT22;52992;52.084;5.412;2023-09-12T06:08:56;23.80;62.50
66190;DHT22;52992;52.084;5.412;2023-09-12T06:11:24;23.80;62.40
66190;DHT22;52992;52.084;5.412;2023-09-12T06:13:51;23.80;62.50
66190;DHT22;52992;52.084;5.412;2023-09-12T06:16:18;23.80;62.50
66190;DHT22;52992;52.084;5.412;2023-09-12T06:18:45;23.90;62.60
66190;DHT22;52992;52.084;5.412;2023-09-12T06:21:12;23.90;62.70
66190;DHT22;52992;52.084;5.412;2023-09-12T06:23:39;23.90;62.80
66190;DHT22;52992;52.084;5.412;2023-09-12T06:26:06;23.90;62.70
66190;DHT22;52992;52.084;5.412;2023-09-12T06:28:34;24.00;62.70
66190;DHT22;52992;52.084;5.412;2023-09-12T06:31:01;23.90;62.60
66190;DHT22;52992;52.084;5.412;2023-09-12T06:33:28;24.00;62.50
66190;DHT22;52992;52.084;5.412;2023-09-12T06:35:55;24.00;62.50
66190;DHT22;52992;52.084;5.412;2023-09-12T06:38:23;24.00;62.50
66190;DHT22;52992;52.084;5.412;2023-09-12T06:40:50;24.00;62.40
66190;DHT22;52992;52.084;5.412;2023-09-12T06:43:18;24.10;62.50
66190;DHT22;52992;52.084;5.412;2023-09-12T06:45:45;24.10;63.20
66190;DHT22;52992;52.084;5.412;2023-09-12T06:48:12;24.20;62.50
66190;DHT22;52992;52.084;5.412;2023-09-12T06:50:40;24.20;62.40
66190;DHT22;52992;52.084;5.412;2023-09-12T06:53:08;24.20;63.10
66190;DHT22;52992;52.084;5.412;2023-09-12T06:55:36;24.30;62.50
66190;DHT22;52992;52.084;5.412;2023-09-12T06:58:04;24.30;62.50
66190;DHT22;52992;52.084;5.412;2023-09-12T07:00:31;24.30;62.50
66190;DHT22;52992;52.084;5.412;2023-09-12T07:02:58;24.40;62.50
66190;DHT22;52992;52.084;5.412;2023-09-12T07:05:25;24.40;62.50
66190;DHT22;52992;52.084;5.412;2023-09-12T07:07:52;24.40;62.40
66190;DHT22;52992;52.084;5.412;2023-09-12T07:10:20;24.50;62.50
66190;DHT22;52992;52.084;5.412;2023-09-12T07:12:52;24.60;62.50
66190;DHT22;52992;52.084;5.412;2023-09-12T07:15:19;24.50;62.60
66190;DHT22;52992;52.084;5.412;2023-09-12T07:17:46;24.60;62.50
66190;DHT22;52992;52.084;5.412;2023-09-12T07:20:14;24.60;62.50
66190;DHT22;52992;52.084;5.412;2023-09-12T07:22:42;24.60;62.50
66190;DHT22;52992;52.084;5.412;2023-09-12T07:25:10;24.70;62.50
66190;DHT22;52992;52.084;5.412;2023-09-12T07:27:39;24.70;62.50
66190;DHT22;52992;52.084;5.412;2023-09-12T07:30:07;24.70;62.50
66190;DHT22;52992;52.084;5.412;2023-09-12T07:32:34;24.80;62.50
66190;DHT22;52992;52.084;5.412;2023-09-12T07:35:01;24.80;62.50
66190;DHT22;52992;52.084;5.412;2023-09-12T07:37:29;24.80;62.50
66190;DHT22;52992;52.084;5.412;2023-09-12T07:39:55;24.70;62.60
66190;DHT22;52992;52.084;5.412;2023-09-12T07:42:23;24.80;62.50
66190;DHT22;52992;52.084;5.412;2023-09-12T07:44:51;24.80;62.50
66190;DHT22;52992;52.084;5.412;2023-09-12T07:47:18;24.80;62.50
66190;DHT22;52992;52.084;5.412;2023-09-12T07:49:53;24.90;62.50
66190;DHT22;52992;52.084;5.412;2023-09-12T07:52:20;25.00;62.20
66190;DHT22;52992;52.084;5.412;2023-09-12T07:54:48;25.20;61.80
66190;DHT22;52992;52.084;5.412;2023-09-12T07:57:15;25.50;61.30
66190;DHT22;52992;52.084;5.412;2023-09-12T07:59:42;25.70;61.00
66190;DHT22;52992;52.084;5.412;2023-09-12T08:02:09;25.90;60.40
66190;DHT22;52992;52.084;5.412;2023-09-12T08:04:39;26.10;60.80
66190;DHT22;52992;52.084;5.412;2023-09-12T08:07:06;26.20;60.90
66190;DHT22;52992;52.084;5.412;2023-09-12T08:09:53;26.40;60.90
66190;DHT22;52992;52.084;5.412;2023-09-12T08:12:22;26.60;60.60
66190;DHT22;52992;52.084;5.412;2023-09-12T08:14:49;26.70;60.50
66190;DHT22;52992;52.084;5.412;2023-09-12T08:17:16;26.80;60.40
66190;DHT22;52992;52.084;5.412;2023-09-12T08:19:44;27.00;60.80
66190;DHT22;52992;52.084;5.412;2023-09-12T08:22:11;27.00;61.00
66190;DHT22;52992;52.084;5.412;2023-09-12T08:24:38;27.10;61.00
66190;DHT22;52992;52.084;5.412;2023-09-12T08:27:07;27.20;61.30
66190;DHT22;52992;52.084;5.412;2023-09-12T08:29:34;27.20;61.40
66190;DHT22;52992;52.084;5.412;2023-09-12T08:32:01;27.30;61.70
66190;DHT22;52992;52.084;5.412;2023-09-12T08:34:28;27.40;62.00
66190;DHT22;52992;52.084;5.412;2023-09-12T08:36:55;27.50;61.90
66190;DHT22;52992;52.084;5.412;2023-09-12T08:39:24;27.70;61.10
66190;DHT22;52992;52.084;5.412;2023-09-12T08:41:53;27.80;61.20
66190;DHT22;52992;52.084;5.412;2023-09-12T08:44:20;27.90;61.10
66190;DHT22;52992;52.084;5.412;2023-09-12T08:46:48;27.90;61.30
66190;DHT22;52992;52.084;5.412;2023-09-12T08:49:16;28.10;62.10
66190;DHT22;52992;52.084;5.412;2023-09-12T08:51:43;28.20;61.40
66190;DHT22;52992;52.084;5.412;2023-09-12T08:54:11;28.30;61.30
66190;DHT22;52992;52.084;5.412;2023-09-12T08:56:40;28.50;61.20
66190;DHT22;52992;52.084;5.412;2023-09-12T08:59:10;28.60;61.10
66190;DHT22;52992;52.084;5.412;2023-09-12T09:01:38;28.90;60.20
66190;DHT22;52992;52.084;5.412;2023-09-12T09:04:06;29.00;60.10
66190;DHT22;52992;52.084;5.412;2023-09-12T09:06:34;29.20;58.40
66190;DHT22;52992;52.084;5.412;2023-09-12T09:09:05;29.30;57.90
66190;DHT22;52992;52.084;5.412;2023-09-12T09:11:33;29.40;57.80
66190;DHT22;52992;52.084;5.412;2023-09-12T09:14:04;29.30;57.20
66190;DHT22;52992;52.084;5.412;2023-09-12T09:16:31;29.10;56.90
66190;DHT22;52992;52.084;5.412;2023-09-12T09:18:59;29.00;56.90
66190;DHT22;52992;52.084;5.412;2023-09-12T09:21:31;28.80;56.30
66190;DHT22;52992;52.084;5.412;2023-09-12T09:24:01;28.70;56.10
66190;DHT22;52992;52.084;5.412;2023-09-12T09:26:48;28.70;56.10
66190;DHT22;52992;52.084;5.412;2023-09-12T09:29:20;28.60;56.30
66190;DHT22;52992;52.084;5.412;2023-09-12T09:31:51;28.60;56.60
66190;DHT22;52992;52.084;5.412;2023-09-12T09:34:20;28.60;56.50
66190;DHT22;52992;52.084;5.412;2023-09-12T09:36:53;28.50;56.10
66190;DHT22;52992;52.084;5.412;2023-09-12T09:39:22;28.40;56.30
66190;DHT22;52992;52.084;5.412;2023-09-12T09:41:51;28.50;56.70
66190;DHT22;52992;52.084;5.412;2023-09-12T09:44:21;28.50;57.10
66190;DHT22;52992;52.084;5.412;2023-09-12T09:46:51;28.60;57.10
66190;DHT22;52992;52.084;5.412;2023-09-12T09:49:21;28.80;57.30
66190;DHT22;52992;52.084;5.412;2023-09-12T09:51:48;29.10;57.70
66190;DHT22;52992;52.084;5.412;2023-09-12T09:54:15;29.20;56.70
66190;DHT22;52992;52.084;5.412;2023-09-12T09:56:47;29.20;56.50
66190;DHT22;52992;52.084;5.412;2023-09-12T09:59:16;29.10;56.30
66190;DHT22;52992;52.084;5.412;2023-09-12T10:01:44;29.30;55.80
66190;DHT22;52992;52.084;5.412;2023-09-12T10:04:13;29.40;55.60
66190;DHT22;52992;52.084;5.412;2023-09-12T10:06:46;29.50;54.70
66190;DHT22;52992;52.084;5.412;2023-09-12T10:09:14;30.00;53.80
66190;DHT22;52992;52.084;5.412;2023-09-12T10:11:43;30.60;51.70
66190;DHT22;52992;52.084;5.412;2023-09-12T10:14:11;30.80;50.80
66190;DHT22;52992;52.084;5.412;2023-09-12T10:16:45;31.00;51.20
66190;DHT22;52992;52.084;5.412;2023-09-12T10:19:23;30.80;51.00
66190;DHT22;52992;52.084;5.412;2023-09-12T10:22:14;30.60;51.20
66190;DHT22;52992;52.084;5.412;2023-09-12T10:24:43;30.40;51.30
66190;DHT22;52992;52.084;5.412;2023-09-12T10:27:12;30.30;52.00
66190;DHT22;52992;52.084;5.412;2023-09-12T10:29:40;30.40;51.70
66190;DHT22;52992;52.084;5.412;2023-09-12T10:32:08;30.80;50.60
66190;DHT22;52992;52.084;5.412;2023-09-12T10:34:37;30.90;49.50
66190;DHT22;52992;52.084;5.412;2023-09-12T10:37:05;30.90;49.70
66190;DHT22;52992;52.084;5.412;2023-09-12T10:39:34;30.80;49.80
66190;DHT22;52992;52.084;5.412;2023-09-12T10:42:04;30.80;49.40
66190;DHT22;52992;52.084;5.412;2023-09-12T10:44:31;30.80;48.30
66190;DHT22;52992;52.084;5.412;2023-09-12T10:46:59;30.80;48.40
66190;DHT22;52992;52.084;5.412;2023-09-12T10:49:26;30.80;49.20
66190;DHT22;52992;52.084;5.412;2023-09-12T10:51:53;30.90;49.20
66190;DHT22;52992;52.084;5.412;2023-09-12T10:54:25;31.00;49.50
66190;DHT22;52992;52.084;5.412;2023-09-12T10:57:07;31.00;49.80
66190;DHT22;52992;52.084;5.412;2023-09-12T10:59:34;31.20;49.80
66190;DHT22;52992;52.084;5.412;2023-09-12T11:02:30;31.20;49.10
66190;DHT22;52992;52.084;5.412;2023-09-12T11:04:59;31.10;49.60
66190;DHT22;52992;52.084;5.412;2023-09-12T11:07:32;31.20;49.30
66190;DHT22;52992;52.084;5.412;2023-09-12T11:12:42;31.30;49.50
66190;DHT22;52992;52.084;5.412;2023-09-12T11:15:10;31.10;49.70
66190;DHT22;52992;52.084;5.412;2023-09-12T11:17:38;30.90;49.90
66190;DHT22;52992;52.084;5.412;2023-09-12T11:20:06;30.90;50.30
66190;DHT22;52992;52.084;5.412;2023-09-12T11:22:44;30.90;49.80
66190;DHT22;52992;52.084;5.412;2023-09-12T11:25:25;30.80;50.60
66190;DHT22;52992;52.084;5.412;2023-09-12T11:30:22;30.80;50.10
66190;DHT22;52992;52.084;5.412;2023-09-12T11:32:51;30.90;49.40
66190;DHT22;52992;52.084;5.412;2023-09-12T11:35:23;30.90;48.90
66190;DHT22;52992;52.084;5.412;2023-09-12T11:37:58;30.80;48.70
66190;DHT22;52992;52.084;5.412;2023-09-12T11:43:01;30.50;49.50
66190;DHT22;52992;52.084;5.412;2023-09-12T11:45:29;30.40;49.70
66190;DHT22;52992;52.084;5.412;2023-09-12T11:47:56;30.30;48.70
66190;DHT22;52992;52.084;5.412;2023-09-12T11:50:34;30.30;48.30
66190;DHT22;52992;52.084;5.412;2023-09-12T11:53:08;30.50;47.40
66190;DHT22;52992;52.084;5.412;2023-09-12T11:55:47;30.80;46.70
66190;DHT22;52992;52.084;5.412;2023-09-12T11:58:16;30.90;46.80
66190;DHT22;52992;52.084;5.412;2023-09-12T12:00:48;30.90;47.40
66190;DHT22;52992;52.084;5.412;2023-09-12T12:03:24;30.70;47.00
66190;DHT22;52992;52.084;5.412;2023-09-12T12:05:54;31.10;45.60
66190;DHT22;52992;52.084;5.412;2023-09-12T12:08:21;31.70;43.70
66190;DHT22;52992;52.084;5.412;2023-09-12T12:10:58;32.40;42.30
66190;DHT22;52992;52.084;5.412;2023-09-12T12:13:27;33.00;41.20
66190;DHT22;52992;52.084;5.412;2023-09-12T12:15:57;33.20;40.70
66190;DHT22;52992;52.084;5.412;2023-09-12T12:18:25;33.20;40.20
66190;DHT22;52992;52.084;5.412;2023-09-12T12:20:53;33.00;41.40
66190;DHT22;52992;52.084;5.412;2023-09-12T12:23:20;32.70;42.60
66190;DHT22;52992;52.084;5.412;2023-09-12T12:25:47;32.40;44.50
66190;DHT22;52992;52.084;5.412;2023-09-12T12:28:16;32.10;46.50
66190;DHT22;52992;52.084;5.412;2023-09-12T12:30:43;31.80;47.20
66190;DHT22;52992;52.084;5.412;2023-09-12T12:33:10;31.60;47.70
66190;DHT22;52992;52.084;5.412;2023-09-12T12:36:04;31.40;47.60
66190;DHT22;52992;52.084;5.412;2023-09-12T12:38:37;31.20;48.80
66190;DHT22;52992;52.084;5.412;2023-09-12T12:41:42;31.00;49.70
66190;DHT22;52992;52.084;5.412;2023-09-12T12:44:18;30.80;48.80
66190;DHT22;52992;52.084;5.412;2023-09-12T12:46:52;30.80;47.70
66190;DHT22;52992;52.084;5.412;2023-09-12T12:49:20;30.80;47.60
66190;DHT22;52992;52.084;5.412;2023-09-12T12:51:48;30.80;47.00
66190;DHT22;52992;52.084;5.412;2023-09-12T12:54:15;30.70;47.50
66190;DHT22;52992;52.084;5.412;2023-09-12T12:56:43;30.60;47.80
66190;DHT22;52992;52.084;5.412;2023-09-12T12:59:12;30.60;47.60
66190;DHT22;52992;52.084;5.412;2023-09-12T13:01:39;30.50;48.10
66190;DHT22;52992;52.084;5.412;2023-09-12T13:04:07;30.30;48.10
66190;DHT22;52992;52.084;5.412;2023-09-12T13:06:35;30.10;48.90
66190;DHT22;52992;52.084;5.412;2023-09-12T13:09:06;29.80;48.90
66190;DHT22;52992;52.084;5.412;2023-09-12T13:11:33;29.70;49.70
66190;DHT22;52992;52.084;5.412;2023-09-12T13:14:02;29.80;50.60
66190;DHT22;52992;52.084;5.412;2023-09-12T13:16:35;29.90;48.50
66190;DHT22;52992;52.084;5.412;2023-09-12T13:19:03;29.80;47.80
66190;DHT22;52992;52.084;5.412;2023-09-12T13:21:31;29.70;47.30
66190;DHT22;52992;52.084;5.412;2023-09-12T13:23:59;29.60;47.20
66190;DHT22;52992;52.084;5.412;2023-09-12T13:26:29;29.50;48.00
66190;DHT22;52992;52.084;5.412;2023-09-12T13:28:56;29.50;47.30
66190;DHT22;52992;52.084;5.412;2023-09-12T13:31:24;29.50;47.90
66190;DHT22;52992;52.084;5.412;2023-09-12T13:33:51;29.50;48.00
66190;DHT22;52992;52.084;5.412;2023-09-12T13:36:18;29.40;48.50
66190;DHT22;52992;52.084;5.412;2023-09-12T13:38:45;29.40;49.00
66190;DHT22;52992;52.084;5.412;2023-09-12T13:41:14;29.40;49.50
66190;DHT22;52992;52.084;5.412;2023-09-12T13:43:41;29.40;50.00
66190;DHT22;52992;52.084;5.412;2023-09-12T13:46:09;29.40;50.20
66190;DHT22;52992;52.084;5.412;2023-09-12T13:48:37;29.30;50.10
66190;DHT22;52992;52.084;5.412;2023-09-12T13:51:04;29.30;49.90
66190;DHT22;52992;52.084;5.412;2023-09-12T13:53:31;29.20;49.40
66190;DHT22;52992;52.084;5.412;2023-09-12T13:55:58;29.20;48.70
66190;DHT22;52992;52.084;5.412;2023-09-12T13:58:47;29.10;48.80
66190;DHT22;52992;52.084;5.412;2023-09-12T14:01:17;28.90;48.70
66190;DHT22;52992;52.084;5.412;2023-09-12T14:03:56;28.90;48.80
66190;DHT22;52992;52.084;5.412;2023-09-12T14:06:24;28.80;50.20
66190;DHT22;52992;52.084;5.412;2023-09-12T14:08:52;28.90;49.90
66190;DHT22;52992;52.084;5.412;2023-09-12T14:11:20;28.90;49.40
66190;DHT22;52992;52.084;5.412;2023-09-12T14:14:02;28.80;49.60
66190;DHT22;52992;52.084;5.412;2023-09-12T14:16:43;28.80;49.90
66190;DHT22;52992;52.084;5.412;2023-09-12T14:19:14;28.80;49.30
66190;DHT22;52992;52.084;5.412;2023-09-12T14:21:42;28.60;49.40
66190;DHT22;52992;52.084;5.412;2023-09-12T14:24:12;28.50;49.50
66190;DHT22;52992;52.084;5.412;2023-09-12T14:26:39;28.40;49.60
66190;DHT22;52992;52.084;5.412;2023-09-12T14:29:08;28.40;49.70
66190;DHT22;52992;52.084;5.412;2023-09-12T14:31:35;28.30;50.30
66190;DHT22;52992;52.084;5.412;2023-09-12T14:34:04;28.30;48.80
66190;DHT22;52992;52.084;5.412;2023-09-12T14:36:32;28.30;49.00
66190;DHT22;52992;52.084;5.412;2023-09-12T14:39:00;28.20;49.00
66190;DHT22;52992;52.084;5.412;2023-09-12T14:41:27;28.20;49.30
66190;DHT22;52992;52.084;5.412;2023-09-12T14:43:54;28.20;49.50
66190;DHT22;52992;52.084;5.412;2023-09-12T14:46:20;28.20;49.40
66190;DHT22;52992;52.084;5.412;2023-09-12T14:48:47;28.20;50.00
66190;DHT22;52992;52.084;5.412;2023-09-12T14:51:28;28.20;49.40
66190;DHT22;52992;52.084;5.412;2023-09-12T14:54:00;28.30;49.20
66190;DHT22;52992;52.084;5.412;2023-09-12T14:56:27;28.30;48.90
66190;DHT22;52992;52.084;5.412;2023-09-12T14:58:54;28.30;49.70
66190;DHT22;52992;52.084;5.412;2023-09-12T15:01:21;28.30;50.00
66190;DHT22;52992;52.084;5.412;2023-09-12T15:03:48;28.30;49.80
66190;DHT22;52992;52.084;5.412;2023-09-12T15:06:15;28.20;49.90
66190;DHT22;52992;52.084;5.412;2023-09-12T15:08:44;28.20;50.10
66190;DHT22;52992;52.084;5.412;2023-09-12T15:11:11;28.20;50.20
66190;DHT22;52992;52.084;5.412;2023-09-12T15:13:38;28.10;50.40
66190;DHT22;52992;52.084;5.412;2023-09-12T15:16:08;28.10;50.90
66190;DHT22;52992;52.084;5.412;2023-09-12T15:18:35;28.10;51.40
66190;DHT22;52992;52.084;5.412;2023-09-12T15:21:04;28.10;51.60
66190;DHT22;52992;52.084;5.412;2023-09-12T15:23:31;28.10;51.50
66190;DHT22;52992;52.084;5.412;2023-09-12T15:25:59;28.10;51.80
66190;DHT22;52992;52.084;5.412;2023-09-12T15:28:26;28.10;51.70
66190;DHT22;52992;52.084;5.412;2023-09-12T15:30:53;28.10;51.60
66190;DHT22;52992;52.084;5.412;2023-09-12T15:33:20;28.10;52.10
66190;DHT22;52992;52.084;5.412;2023-09-12T15:35:49;28.10;52.30
66190;DHT22;52992;52.084;5.412;2023-09-12T15:38:16;28.20;52.30
66190;DHT22;52992;52.084;5.412;2023-09-12T15:40:43;28.30;52.40
66190;DHT22;52992;52.084;5.412;2023-09-12T15:43:09;28.20;51.80
66190;DHT22;52992;52.084;5.412;2023-09-12T15:45:51;28.20;51.70
66190;DHT22;52992;52.084;5.412;2023-09-12T15:48:18;28.20;51.30
66190;DHT22;52992;52.084;5.412;2023-09-12T15:50:46;28.20;51.40